Time;durP1;ratioP1;P1;durP2;ratioP2;P2;SDS_P1;SDS_P2;PMS_P1;PMS_P2;Temp;Humidity;BMP_temperature;BMP_pressure;BME280_temperature;BME280_humidity;BME280_pressure;Samples;Min_cycle;Max_cycle;Signal;HPM_P1;HPM_P2
2022/04/30 00:02:22;;;;;;;3.00;1.58;;;13.60;57.30;;;;;;4940943;29;20023;-80
2022/04/30 00:04:49;;;;;;;2.08;1.63;;;13.60;57.30;;;;;;4940861;29;20028;-79
2022/04/30 00:07:18;;;;;;;2.47;1.73;;;13.50;57.30;;;;;;4940687;29;20043;-81
2022/04/30 00:09:45;;;;;;;1.83;1.52;;;13.50;57.30;;;;;;4940635;29;20436;-82
2022/04/30 00:12:12;;;;;;;1.90;1.60;;;13.50;57.40;;;;;;4940980;29;20061;-79
2022/04/30 00:14:39;;;;;;;1.83;1.50;;;13.40;57.40;;;;;;4956872;29;20034;-79
2022/04/30 00:17:06;;;;;;;1.63;1.50;;;13.40;57.40;;;;;;4940189;29;20027;-79
2022/04/30 00:19:31;;;;;;;2.13;1.63;;;13.40;57.40;;;;;;4955687;29;20082;-80
2022/04/30 00:21:57;;;;;;;1.60;1.50;;;13.30;57.40;;;;;;4956077;29;20043;-80
2022/04/30 00:24:24;;;;;;;1.67;1.40;;;13.30;57.40;;;;;;4955766;29;20170;-79
2022/04/30 00:26:50;;;;;;;1.95;1.60;;;13.30;57.50;;;;;;4940609;29;20054;-79
2022/04/30 00:29:16;;;;;;;1.58;1.35;;;13.30;57.50;;;;;;4956423;29;20031;-78
2022/04/30 00:31:43;;;;;;;2.03;1.50;;;13.20;57.50;;;;;;4939837;29;20035;-78
2022/04/30 00:34:09;;;;;;;1.45;1.35;;;13.20;57.60;;;;;;4956017;29;20059;-81
2022/04/30 00:36:35;;;;;;;1.70;1.60;;;13.20;57.60;;;;;;4940090;29;20031;-78
2022/04/30 00:39:02;;;;;;;1.58;1.48;;;13.10;57.60;;;;;;4956664;29;20032;-77
2022/04/30 00:41:32;;;;;;;1.58;1.45;;;13.10;57.60;;;;;;4923879;29;20078;-79
2022/04/30 00:43:59;;;;;;;1.73;1.52;;;13.10;57.70;;;;;;4939773;29;20039;-79
2022/04/30 00:46:25;;;;;;;1.45;1.35;;;13.10;57.70;;;;;;4955505;29;20020;-79
2022/04/30 00:48:53;;;;;;;1.95;1.52;;;13.00;57.70;;;;;;4955246;29;20030;-78
2022/04/30 00:51:21;;;;;;;2.00;1.70;;;13.00;57.70;;;;;;4955375;29;20103;-79
2022/04/30 00:53:51;;;;;;;1.67;1.50;;;12.90;57.70;;;;;;4939871;29;20368;-78
2022/04/30 00:56:49;;;;;;;1.80;1.60;;;12.90;57.80;;;;;;4955662;29;20456;-79
2022/04/30 00:59:17;;;;;;;1.98;1.70;;;12.90;57.90;;;;;;4945525;29;20043;-79
2022/04/30 01:01:44;;;;;;;1.52;1.40;;;12.90;57.80;;;;;;4954977;29;20436;-79
2022/04/30 01:04:14;;;;;;;1.52;1.40;;;12.80;57.80;;;;;;4939659;29;20049;-80
2022/04/30 01:06:55;;;;;;;1.92;1.63;;;12.80;57.90;;;;;;4939077;29;20170;-79
2022/04/30 01:09:24;;;;;;;2.70;1.83;;;12.80;58.60;;;;;;4956820;28;20035;-79
2022/04/30 01:12:10;;;;;;;3.60;2.38;;;12.80;58.00;;;;;;4939829;29;20098;-81
2022/04/30 01:14:38;;;;;;;1.67;1.58;;;12.70;58.00;;;;;;4939790;29;20054;-79
2022/04/30 01:17:06;;;;;;;2.20;1.80;;;12.70;58.00;;;;;;4939794;29;20031;-80
2022/04/30 01:19:37;;;;;;;2.97;1.90;;;12.70;58.10;;;;;;4938938;29;20111;-80
2022/04/30 01:22:09;;;;;;;2.25;1.63;;;12.60;58.10;;;;;;4939505;29;20031;-80
2022/04/30 01:24:37;;;;;;;2.65;1.85;;;12.60;58.20;;;;;;4956584;28;20075;-82
2022/04/30 01:27:05;;;;;;;2.42;1.85;;;12.60;58.20;;;;;;4939190;29;20066;-80
2022/04/30 01:29:32;;;;;;;2.63;1.83;;;12.50;58.20;;;;;;4954324;28;20464;-81
2022/04/30 01:37:29;;;;;;;2.88;1.67;;;12.50;58.20;;;;;;4954899;29;20496;-81
2022/04/30 01:40:03;;;;;;;2.83;2.03;;;12.40;58.10;;;;;;4954662;29;20019;-81
2022/04/30 01:42:39;;;;;;;3.28;2.00;;;12.40;58.30;;;;;;4954395;29;20129;-79
2022/04/30 01:45:06;;;;;;;1.80;1.63;;;12.40;58.30;;;;;;4954901;29;20106;-81
2022/04/30 01:47:35;;;;;;;2.50;2.00;;;12.30;58.30;;;;;;4938405;29;20043;-80
2022/04/30 01:50:01;;;;;;;2.35;1.83;;;12.30;58.30;;;;;;4938554;29;20031;-79
2022/04/30 01:52:27;;;;;;;3.63;2.38;;;12.30;58.40;;;;;;4938168;29;20118;-79
2022/04/30 01:54:53;;;;;;;3.28;2.47;;;12.30;58.40;;;;;;4922600;29;20126;-80
2022/04/30 01:57:23;;;;;;;4.00;2.20;;;12.30;58.40;;;;;;4954287;29;20027;-80
2022/04/30 02:00:00;;;;;;;2.90;2.25;;;12.20;58.40;;;;;;4954359;29;20094;-80
2022/04/30 02:02:34;;;;;;;3.05;2.25;;;12.20;58.50;;;;;;4938268;29;20139;-80
2022/04/30 02:05:05;;;;;;;3.13;2.28;;;12.20;58.50;;;;;;4954376;29;20031;-80
2022/04/30 02:07:34;;;;;;;3.00;2.22;;;12.10;58.50;;;;;;4938372;29;20122;-80
2022/04/30 02:10:01;;;;;;;2.80;2.10;;;12.10;58.50;;;;;;4938441;29;20054;-80
2022/04/30 02:12:31;;;;;;;3.25;2.17;;;12.10;58.60;;;;;;4937990;29;20529;-80
2022/04/30 02:14:58;;;;;;;3.13;2.13;;;12.10;58.60;;;;;;4938275;29;20471;-82
2022/04/30 02:17:26;;;;;;;2.67;2.10;;;12.10;58.60;;;;;;4938329;29;20062;-80
2022/04/30 02:22:40;;;;;;;2.60;2.03;;;12.00;58.70;;;;;;4954360;29;20035;-79
2022/04/30 02:25:12;;;;;;;3.00;2.00;;;12.00;58.70;;;;;;4954517;29;20054;-80
2022/04/30 02:27:43;;;;;;;2.85;2.28;;;11.90;58.70;;;;;;4939129;29;20087;-79
2022/04/30 02:30:17;;;;;;;3.90;2.53;;;11.90;58.70;;;;;;4922794;29;20059;-79
2022/04/30 02:32:46;;;;;;;2.78;2.10;;;11.90;58.80;;;;;;4938420;29;20478;-81
2022/04/30 02:35:14;;;;;;;3.60;2.47;;;11.90;58.80;;;;;;4938003;29;20448;-80
2022/04/30 02:37:44;;;;;;;4.78;2.40;;;11.90;58.80;;;;;;4955063;29;20041;-79
2022/04/30 02:40:13;;;;;;;4.03;2.60;;;11.80;58.80;;;;;;4940732;29;20026;-79
2022/04/30 02:42:40;;;;;;;4.22;2.65;;;11.80;58.90;;;;;;4942137;29;20090;-79
2022/04/30 02:45:08;;;;;;;3.50;2.30;;;11.80;58.90;;;;;;4926782;29;20078;-80
2022/04/30 02:47:33;;;;;;;3.03;2.20;;;11.70;58.90;;;;;;4942878;29;20043;-80
2022/04/30 02:49:59;;;;;;;3.20;2.33;;;11.70;58.90;;;;;;4926285;29;20086;-80
2022/04/30 02:52:25;;;;;;;3.28;2.25;;;11.70;59.00;;;;;;4958510;29;20071;-80
2022/04/30 02:54:51;;;;;;;2.85;2.20;;;11.70;59.00;;;;;;4958090;29;20062;-80
2022/04/30 02:57:16;;;;;;;3.80;2.47;;;11.70;59.00;;;;;;4941939;29;20039;-80
2022/04/30 02:59:54;;;;;;;3.60;2.30;;;11.60;59.00;;;;;;4957824;29;20063;-80
2022/04/30 03:02:40;;;;;;;2.70;2.10;;;11.60;59.00;;;;;;4934084;29;20078;-80
2022/04/30 03:05:06;;;;;;;3.35;2.17;;;11.60;59.00;;;;;;4957670;29;20068;-81
2022/04/30 03:07:33;;;;;;;3.40;2.40;;;11.60;59.10;;;;;;4910268;29;20035;-80
2022/04/30 03:09:59;;;;;;;3.20;2.33;;;11.50;59.10;;;;;;4941415;29;20097;-81
2022/04/30 03:12:25;;;;;;;3.42;2.30;;;11.50;59.10;;;;;;4958566;28;20549;-80
2022/04/30 03:14:51;;;;;;;4.10;2.53;;;11.50;59.20;;;;;;4957992;29;20082;-79
2022/04/30 03:22:46;;;;;;;3.27;2.40;;;11.40;59.20;;;;;;4944004;29;20090;-79
2022/04/30 03:25:12;;;;;;;2.88;2.30;;;11.40;59.20;;;;;;4942034;29;20031;-81
2022/04/30 03:27:38;;;;;;;3.13;2.20;;;11.40;59.30;;;;;;4925725;29;20110;-78
2022/04/30 03:30:04;;;;;;;3.95;2.50;;;11.40;59.30;;;;;;4941059;29;20078;-83
2022/04/30 03:32:31;;;;;;;3.15;2.30;;;11.40;59.40;;;;;;4940956;29;20039;-80
2022/04/30 03:34:56;;;;;;;4.00;2.80;;;11.30;59.30;;;;;;4910234;29;20034;-80
2022/04/30 03:37:22;;;;;;;3.92;2.60;;;11.30;59.40;;;;;;4956791;29;20035;-80
2022/04/30 03:39:48;;;;;;;4.22;2.53;;;11.30;59.40;;;;;;4925052;29;20046;-80
2022/04/30 03:42:13;;;;;;;4.03;2.63;;;11.30;59.40;;;;;;4956485;29;20039;-80
2022/04/30 03:44:39;;;;;;;3.22;2.50;;;11.30;59.40;;;;;;4940962;29;20035;-80
2022/04/30 03:47:05;;;;;;;3.53;2.60;;;11.30;59.40;;;;;;4956159;29;20047;-79
2022/04/30 03:49:31;;;;;;;4.40;2.78;;;11.20;59.40;;;;;;4940574;29;20042;-80
2022/04/30 03:51:57;;;;;;;4.03;2.38;;;11.20;60.10;;;;;;4940780;29;20027;-80
2022/04/30 03:54:22;;;;;;;4.25;2.70;;;11.20;59.50;;;;;;4956614;29;20099;-81
2022/04/30 03:56:48;;;;;;;3.97;2.35;;;11.20;59.50;;;;;;4940368;29;20031;-79
2022/04/30 03:59:15;;;;;;;3.58;2.50;;;11.20;59.50;;;;;;4957593;29;20116;-80
2022/04/30 04:01:40;;;;;;;3.33;2.60;;;11.20;59.60;;;;;;4957262;28;20087;-80
2022/04/30 04:04:06;;;;;;;3.05;2.35;;;11.10;59.60;;;;;;4942892;29;20126;-80
2022/04/30 04:06:32;;;;;;;2.88;2.10;;;11.10;59.60;;;;;;4927547;29;20110;-81
2022/04/30 04:08:59;;;;;;;3.92;2.50;;;11.10;59.60;;;;;;4956300;29;20031;-82
2022/04/30 04:11:26;;;;;;;3.70;2.50;;;11.10;59.70;;;;;;4940617;29;20106;-80
2022/04/30 04:19:24;;;;;;;3.20;2.33;;;11.00;59.70;;;;;;4957671;29;20089;-79
2022/04/30 04:21:50;;;;;;;3.53;2.47;;;11.00;59.60;;;;;;4924732;29;20038;-79
2022/04/30 04:27:01;;;;;;;3.22;2.22;;;10.90;59.80;;;;;;4956809;29;20411;-78
2022/04/30 04:29:27;;;;;;;3.22;2.38;;;10.90;59.80;;;;;;4939927;29;20031;-79
2022/04/30 04:31:52;;;;;;;3.15;2.40;;;10.90;59.80;;;;;;4939991;29;20028;-80
2022/04/30 04:34:18;;;;;;;3.00;2.20;;;10.90;59.80;;;;;;4940728;29;20125;-79
2022/04/30 04:36:44;;;;;;;3.97;2.80;;;10.80;59.80;;;;;;4956218;29;20028;-79
2022/04/30 04:39:14;;;;;;;3.80;2.63;;;10.80;59.80;;;;;;4940384;29;20135;-80
2022/04/30 04:41:42;;;;;;;3.30;2.42;;;10.90;59.90;;;;;;4939951;29;20359;-80
2022/04/30 04:44:08;;;;;;;3.20;2.33;;;10.80;59.90;;;;;;4939737;29;20101;-80
2022/04/30 04:46:35;;;;;;;3.92;2.47;;;10.80;59.90;;;;;;4924364;29;20120;-80
2022/04/30 04:49:01;;;;;;;3.70;2.50;;;10.80;59.90;;;;;;4955769;29;20032;-80
2022/04/30 04:51:28;;;;;;;3.80;2.60;;;10.80;59.90;;;;;;4939455;29;20027;-79
2022/04/30 04:53:55;;;;;;;3.10;2.25;;;10.80;60.00;;;;;;4939665;29;20440;-79
2022/04/30 04:56:21;;;;;;;3.20;2.40;;;10.70;59.90;;;;;;4955577;29;20086;-80
2022/04/30 04:58:46;;;;;;;3.35;2.50;;;10.70;59.90;;;;;;4939459;29;20039;-80
2022/04/30 05:01:12;;;;;;;3.53;2.40;;;10.70;60.00;;;;;;4955683;29;20031;-81
2022/04/30 05:03:38;;;;;;;3.03;2.42;;;10.70;60.00;;;;;;4954414;28;20421;-79
2022/04/30 05:06:04;;;;;;;3.35;2.30;;;10.60;60.00;;;;;;4939412;29;20042;-81
2022/04/30 05:08:30;;;;;;;3.25;2.50;;;10.70;60.00;;;;;;4923375;29;20032;-81
2022/04/30 05:10:55;;;;;;;4.40;2.60;;;10.70;60.00;;;;;;4955798;29;20032;-80
2022/04/30 05:13:21;;;;;;;3.42;2.60;;;10.70;60.10;;;;;;4938885;29;20083;-80
2022/04/30 05:15:47;;;;;;;4.70;2.53;;;10.60;60.00;;;;;;4955156;29;20039;-80
2022/04/30 05:18:13;;;;;;;3.42;2.72;;;10.60;60.70;;;;;;4954970;29;20062;-80
2022/04/30 05:20:39;;;;;;;2.70;2.30;;;10.60;60.20;;;;;;4923878;29;20448;-80
2022/04/30 05:23:05;;;;;;;3.42;2.50;;;10.60;60.20;;;;;;4955273;29;20038;-79
2022/04/30 05:25:31;;;;;;;2.65;2.17;;;10.60;60.20;;;;;;4923050;29;20031;-80
2022/04/30 05:27:57;;;;;;;3.10;2.30;;;10.60;60.30;;;;;;4938848;29;20043;-80
2022/04/30 05:30:23;;;;;;;3.40;2.45;;;10.60;60.30;;;;;;4955349;29;20110;-79
2022/04/30 05:32:49;;;;;;;3.90;2.70;;;10.60;60.30;;;;;;4955551;29;20090;-79
2022/04/30 05:35:15;;;;;;;3.15;2.30;;;10.50;60.30;;;;;;4940106;29;20039;-81
2022/04/30 05:37:41;;;;;;;4.43;2.67;;;10.50;60.30;;;;;;4907442;29;20396;-80
2022/04/30 05:40:07;;;;;;;3.55;2.50;;;10.50;60.30;;;;;;4907348;29;20074;-79
2022/04/30 05:42:33;;;;;;;3.63;2.50;;;10.50;60.40;;;;;;4939855;29;20408;-81
2022/04/30 05:44:59;;;;;;;2.97;2.33;;;10.50;60.40;;;;;;4954541;29;20028;-80
2022/04/30 05:47:25;;;;;;;3.47;2.58;;;10.50;60.40;;;;;;4938590;29;20051;-81
2022/04/30 05:49:51;;;;;;;3.50;2.50;;;10.50;60.50;;;;;;4954994;29;20031;-80
2022/04/30 05:52:19;;;;;;;3.60;2.53;;;10.50;60.50;;;;;;4956390;29;20379;-83
2022/04/30 05:54:46;;;;;;;2.88;2.17;;;10.50;60.50;;;;;;4939082;29;20038;-81
2022/04/30 05:57:11;;;;;;;3.58;2.35;;;10.50;60.50;;;;;;4955993;29;20047;-80
2022/04/30 05:59:37;;;;;;;2.47;1.98;;;10.50;60.60;;;;;;4938635;29;20419;-80
2022/04/30 06:02:03;;;;;;;2.70;2.22;;;10.50;60.60;;;;;;4938111;29;20043;-80
2022/04/30 06:04:29;;;;;;;3.72;2.30;;;10.50;60.60;;;;;;4955412;29;20035;-82
2022/04/30 06:06:54;;;;;;;3.25;2.30;;;10.50;60.60;;;;;;4954168;29;20036;-81
2022/04/30 06:09:20;;;;;;;2.75;2.20;;;10.60;60.70;;;;;;4938136;29;20035;-80
2022/04/30 06:11:47;;;;;;;2.72;1.95;;;10.60;60.70;;;;;;4906997;29;20042;-80
2022/04/30 06:14:13;;;;;;;3.13;2.05;;;10.60;60.70;;;;;;4938373;29;20110;-82
2022/04/30 06:16:39;;;;;;;4.30;2.35;;;10.60;60.70;;;;;;4938895;29;20027;-81
2022/04/30 06:19:04;;;;;;;2.70;2.20;;;10.60;60.80;;;;;;4907081;29;20046;-82
2022/04/30 06:21:31;;;;;;;2.42;2.13;;;10.60;60.80;;;;;;4954067;29;20039;-81
2022/04/30 06:23:57;;;;;;;3.60;2.35;;;10.70;60.90;;;;;;4953984;29;20122;-81
2022/04/30 06:26:23;;;;;;;2.67;2.10;;;10.70;60.80;;;;;;4954251;29;20502;-81
2022/04/30 06:28:49;;;;;;;3.58;2.47;;;10.60;60.80;;;;;;4922734;29;20043;-80
2022/04/30 06:31:14;;;;;;;3.20;2.13;;;10.70;60.90;;;;;;4954394;29;20058;-80
2022/04/30 06:33:40;;;;;;;3.22;2.10;;;10.70;60.90;;;;;;4954282;29;20049;-80
2022/04/30 06:36:07;;;;;;;3.45;2.30;;;10.70;60.90;;;;;;4938184;29;20062;-80
2022/04/30 06:38:33;;;;;;;3.42;2.20;;;10.70;60.90;;;;;;4938413;29;20038;-79
2022/04/30 06:40:59;;;;;;;2.20;1.90;;;10.80;61.00;;;;;;4940355;29;20038;-78
2022/04/30 06:43:25;;;;;;;3.00;2.08;;;10.80;61.00;;;;;;4922504;29;20158;-78
2022/04/30 06:45:51;;;;;;;2.92;2.40;;;10.80;61.00;;;;;;4956697;29;20031;-80
2022/04/30 06:48:17;;;;;;;2.65;1.95;;;10.80;61.00;;;;;;4941502;29;20128;-81
2022/04/30 06:50:44;;;;;;;2.67;2.05;;;10.80;61.00;;;;;;4938126;29;20035;-79
2022/04/30 06:58:42;;;;;;;1.92;1.77;;;10.90;61.00;;;;;;4944274;28;20066;-79
2022/04/30 07:03:55;;;;;;;3.70;2.08;;;10.90;61.10;;;;;;4956442;29;20472;-80
2022/04/30 07:06:21;;;;;;;2.70;2.10;;;10.90;61.00;;;;;;4955105;29;20526;-80
2022/04/30 07:08:47;;;;;;;2.95;1.83;;;11.00;61.20;;;;;;4938172;29;20047;-81
2022/04/30 07:11:13;;;;;;;4.10;2.05;;;11.00;61.20;;;;;;4938543;29;20071;-80
2022/04/30 07:13:38;;;;;;;2.17;1.77;;;11.00;61.20;;;;;;4953662;29;20051;-79
2022/04/30 07:16:06;;;;;;;2.78;1.90;;;11.00;61.20;;;;;;4938069;29;20039;-78
2022/04/30 07:18:31;;;;;;;2.63;1.88;;;11.00;61.20;;;;;;4953792;29;20061;-81
2022/04/30 07:20:57;;;;;;;1.83;1.70;;;11.10;61.30;;;;;;4953747;29;20031;-76
2022/04/30 07:23:23;;;;;;;2.38;1.83;;;11.10;61.30;;;;;;4953333;29;20087;-83
2022/04/30 07:25:49;;;;;;;3.38;2.10;;;11.10;61.30;;;;;;4938000;29;20455;-83
2022/04/30 07:28:14;;;;;;;2.45;1.92;;;11.20;61.40;;;;;;4940502;29;20043;-82
2022/04/30 07:30:41;;;;;;;2.25;1.77;;;11.20;61.40;;;;;;4941953;29;20031;-81
2022/04/30 07:33:06;;;;;;;3.65;2.10;;;11.20;61.40;;;;;;4956716;29;20082;-81
2022/04/30 07:35:32;;;;;;;2.25;1.83;;;11.30;61.40;;;;;;4940966;29;20027;-80
2022/04/30 07:37:58;;;;;;;3.17;1.80;;;11.30;61.40;;;;;;4941510;29;20511;-80
2022/04/30 07:40:24;;;;;;;2.83;2.00;;;11.30;61.40;;;;;;4941242;29;20023;-80
2022/04/30 07:42:50;;;;;;;2.65;1.88;;;11.30;61.40;;;;;;4940851;29;20035;-77
2022/04/30 07:45:16;;;;;;;2.15;1.80;;;11.40;61.50;;;;;;4940632;29;20400;-80
2022/04/30 07:47:42;;;;;;;2.25;1.88;;;11.40;61.50;;;;;;4940437;29;20522;-79
2022/04/30 07:50:09;;;;;;;3.65;2.17;;;11.40;61.50;;;;;;4908866;29;20028;-80
2022/04/30 07:52:35;;;;;;;2.17;1.73;;;11.40;61.40;;;;;;4940571;29;20408;-79
2022/04/30 07:55:03;;;;;;;2.10;1.83;;;11.50;61.50;;;;;;4956704;29;20035;-79
2022/04/30 07:57:28;;;;;;;2.88;2.08;;;11.50;61.50;;;;;;4924441;29;20067;-80
2022/04/30 07:59:54;;;;;;;2.03;1.70;;;11.60;61.50;;;;;;4940590;29;20063;-80
2022/04/30 08:02:20;;;;;;;2.58;2.00;;;11.60;61.50;;;;;;4940745;29;20039;-80
2022/04/30 08:04:46;;;;;;;2.00;1.80;;;11.70;61.50;;;;;;4924788;29;20027;-79
2022/04/30 08:07:12;;;;;;;2.00;1.70;;;11.70;61.40;;;;;;4940238;29;20062;-79
2022/04/30 08:09:38;;;;;;;2.15;1.85;;;11.80;61.40;;;;;;4908660;29;20035;-80
2022/04/30 08:12:04;;;;;;;1.90;1.70;;;11.80;61.30;;;;;;4923857;29;20082;-79
2022/04/30 08:14:31;;;;;;;2.08;1.80;;;11.90;61.30;;;;;;4958110;29;20067;-80
2022/04/30 08:16:57;;;;;;;2.00;1.75;;;12.00;61.20;;;;;;4924991;29;20039;-79
2022/04/30 08:19:23;;;;;;;2.05;1.83;;;12.00;61.10;;;;;;4942982;29;20062;-81
2022/04/30 08:21:48;;;;;;;2.38;2.00;;;12.10;61.10;;;;;;4942274;29;20035;-81
2022/04/30 08:24:15;;;;;;;2.42;1.90;;;12.10;61.00;;;;;;4940275;29;20122;-79
2022/04/30 08:26:42;;;;;;;2.50;1.95;;;12.20;61.00;;;;;;4940648;29;20043;-78
2022/04/30 08:29:08;;;;;;;2.53;2.10;;;12.20;61.00;;;;;;4940313;29;20531;-78
2022/04/30 08:31:34;;;;;;;2.67;2.05;;;12.30;60.90;;;;;;4923978;29;20039;-79
2022/04/30 08:33:59;;;;;;;2.10;1.80;;;12.40;60.90;;;;;;4955985;29;20077;-81
2022/04/30 08:36:25;;;;;;;3.30;2.60;;;12.40;60.90;;;;;;4940316;29;20094;-80
2022/04/30 08:38:51;;;;;;;3.83;1.98;;;12.50;60.90;;;;;;4939829;29;20035;-79
2022/04/30 08:41:16;;;;;;;3.47;1.92;;;12.50;60.80;;;;;;4955679;29;20443;-79
2022/04/30 08:43:47;;;;;;;2.35;1.95;;;12.60;60.80;;;;;;4955527;29;20042;-77
2022/04/30 08:46:13;;;;;;;3.30;2.20;;;12.60;60.80;;;;;;4939697;29;20027;-78
2022/04/30 08:48:40;;;;;;;3.08;2.17;;;12.70;60.80;;;;;;4955857;29;20031;-77
2022/04/30 08:51:05;;;;;;;3.55;2.10;;;12.70;60.70;;;;;;4939557;29;20047;-77
2022/04/30 08:53:32;;;;;;;4.03;2.28;;;12.80;60.80;;;;;;4955856;29;20384;-80
2022/04/30 08:55:57;;;;;;;3.28;2.20;;;12.90;60.80;;;;;;4939209;29;20129;-87
2022/04/30 08:58:23;;;;;;;3.83;2.45;;;12.90;60.70;;;;;;4956695;28;20039;-81
2022/04/30 09:00:49;;;;;;;3.40;1.92;;;12.90;60.70;;;;;;4939618;29;20035;-80
2022/04/30 09:03:17;;;;;;;2.50;2.28;;;13.00;60.80;;;;;;4956999;29;20031;-77
2022/04/30 09:05:44;;;;;;;2.83;2.20;;;13.00;60.70;;;;;;4939254;29;20114;-77
2022/04/30 09:08:09;;;;;;;2.90;2.08;;;13.10;60.70;;;;;;4939412;29;20031;-80
2022/04/30 09:10:37;;;;;;;2.63;2.03;;;13.10;60.70;;;;;;4923883;29;20035;-81
2022/04/30 09:13:21;;;;;;;2.38;2.03;;;13.10;60.70;;;;;;4923261;29;20146;-79
2022/04/30 09:15:47;;;;;;;2.83;2.20;;;13.20;60.80;;;;;;4939655;29;20046;-79
2022/04/30 09:18:14;;;;;;;2.35;2.10;;;13.30;60.70;;;;;;4907018;29;20050;-77
2022/04/30 09:20:48;;;;;;;3.20;2.20;;;13.30;60.70;;;;;;4939373;29;20024;-79
2022/04/30 09:23:29;;;;;;;3.63;2.60;;;13.40;60.80;;;;;;4955880;28;20501;-78
2022/04/30 09:25:57;;;;;;;2.88;1.90;;;13.40;60.70;;;;;;4955124;29;20106;-75
2022/04/30 09:28:28;;;;;;;3.70;2.38;;;13.50;60.70;;;;;;4938743;29;20082;-77
2022/04/30 09:31:13;;;;;;;2.65;2.10;;;13.60;60.70;;;;;;4954787;29;20074;-77
2022/04/30 09:33:59;;;;;;;3.10;2.40;;;13.60;60.70;;;;;;4938474;29;20035;-82
2022/04/30 09:39:12;;;;;;;3.50;2.20;;;13.70;60.50;;;;;;4954715;29;20039;-80
2022/04/30 09:41:38;;;;;;;2.75;2.08;;;13.80;60.50;;;;;;4954267;29;20037;-79
2022/04/30 09:44:05;;;;;;;2.70;2.00;;;13.80;60.60;;;;;;4954460;29;20459;-76
2022/04/30 09:46:38;;;;;;;2.83;2.20;;;13.90;60.60;;;;;;4937867;29;20063;-77
2022/04/30 09:54:36;;;;;;;3.97;2.58;;;14.20;60.60;;;;;;4955464;29;20035;-77
2022/04/30 09:57:04;;;;;;;2.60;2.03;;;14.20;60.40;;;;;;4954363;29;20531;-78
2022/04/30 09:59:33;;;;;;;3.20;2.28;;;14.30;60.50;;;;;;4922511;29;20498;-76
2022/04/30 10:02:03;;;;;;;3.42;2.20;;;14.40;60.40;;;;;;4938232;29;20028;-77
2022/04/30 10:04:29;;;;;;;2.88;2.25;;;14.50;60.40;;;;;;4938111;29;20034;-77
2022/04/30 10:06:58;;;;;;;2.75;2.25;;;14.50;60.30;;;;;;4938551;29;20031;-79
2022/04/30 10:09:29;;;;;;;3.08;2.40;;;14.60;60.20;;;;;;4955022;28;20039;-78
2022/04/30 10:12:11;;;;;;;3.08;2.30;;;14.70;60.10;;;;;;4937619;29;20122;-78
2022/04/30 10:14:49;;;;;;;2.38;1.92;;;14.80;60.10;;;;;;4954507;29;20039;-78
2022/04/30 10:19:45;;;;;;;3.08;2.10;;;14.90;59.90;;;;;;4954623;29;20035;-76
2022/04/30 10:22:15;;;;;;;2.78;2.30;;;14.90;59.90;;;;;;4953753;29;20111;-78
2022/04/30 10:24:46;;;;;;;2.92;2.35;;;14.90;59.80;;;;;;4954967;28;20055;-79
2022/04/30 10:27:12;;;;;;;3.45;2.25;;;15.00;59.80;;;;;;4938100;29;20082;-75
2022/04/30 10:29:38;;;;;;;3.22;2.40;;;15.00;59.80;;;;;;4937795;29;20046;-78
2022/04/30 10:32:04;;;;;;;3.72;2.33;;;15.10;59.70;;;;;;4953760;29;20472;-76
2022/04/30 10:34:33;;;;;;;2.40;2.13;;;15.10;59.70;;;;;;4954486;29;20628;-77
2022/04/30 10:37:02;;;;;;;3.25;2.30;;;15.20;59.70;;;;;;4938273;29;20131;-75
2022/04/30 10:39:28;;;;;;;4.25;2.28;;;15.20;59.70;;;;;;4953511;29;20027;-77
2022/04/30 10:41:54;;;;;;;3.80;2.60;;;15.30;59.70;;;;;;4921773;29;20031;-76
2022/04/30 10:44:32;;;;;;;3.47;2.45;;;15.30;59.70;;;;;;4922119;29;20487;-77
2022/04/30 10:47:14;;;;;;;3.40;2.42;;;15.30;59.70;;;;;;4937694;29;20035;-76
2022/04/30 10:49:40;;;;;;;3.22;2.53;;;15.40;59.80;;;;;;4953836;29;20119;-78
2022/04/30 10:52:08;;;;;;;3.40;2.38;;;15.40;59.60;;;;;;4953904;29;20055;-77
2022/04/30 10:54:34;;;;;;;4.25;2.80;;;15.40;59.70;;;;;;4937723;29;20054;-77
2022/04/30 10:57:02;;;;;;;3.65;2.85;;;15.50;59.60;;;;;;4937576;29;20368;-78
2022/04/30 10:59:28;;;;;;;3.38;2.58;;;15.50;59.60;;;;;;4953419;29;20027;-80
2022/04/30 11:01:54;;;;;;;2.95;2.30;;;15.50;59.50;;;;;;4938129;29;20110;-76
2022/04/30 11:04:21;;;;;;;3.53;2.72;;;15.50;59.40;;;;;;4957789;29;20087;-77
2022/04/30 11:06:52;;;;;;;3.70;2.88;;;15.50;59.40;;;;;;4958073;28;20110;-76
2022/04/30 11:09:21;;;;;;;3.78;2.80;;;15.50;59.40;;;;;;4957252;29;20039;-77
2022/04/30 11:11:49;;;;;;;3.75;2.67;;;15.60;59.40;;;;;;4957037;29;20079;-77
2022/04/30 11:14:21;;;;;;;3.13;2.50;;;15.60;59.30;;;;;;4956939;29;20090;-75
2022/04/30 11:16:52;;;;;;;2.65;2.25;;;15.60;59.30;;;;;;4941341;29;20031;-79
2022/04/30 11:19:20;;;;;;;3.60;2.58;;;15.70;59.40;;;;;;4941492;29;20035;-81
2022/04/30 11:22:09;;;;;;;3.45;2.65;;;15.70;59.30;;;;;;4941194;29;20384;-78
2022/04/30 11:24:38;;;;;;;2.90;2.40;;;15.70;59.30;;;;;;4941056;29;20042;-78
2022/04/30 11:27:06;;;;;;;3.53;2.65;;;15.70;59.30;;;;;;4957034;29;20098;-78
2022/04/30 11:29:37;;;;;;;3.60;2.58;;;15.70;59.20;;;;;;4958395;29;20028;-78
2022/04/30 11:32:04;;;;;;;3.60;2.50;;;15.80;59.30;;;;;;4940437;29;20399;-77
2022/04/30 11:34:30;;;;;;;3.15;2.50;;;15.80;59.20;;;;;;4941438;29;20029;-77
2022/04/30 11:36:59;;;;;;;3.92;2.70;;;15.80;59.10;;;;;;4957190;29;20075;-78
2022/04/30 11:39:26;;;;;;;4.10;2.65;;;15.80;59.20;;;;;;4956738;29;20114;-76
2022/04/30 11:41:54;;;;;;;3.35;2.50;;;15.80;59.10;;;;;;4956261;29;20480;-75
2022/04/30 11:44:25;;;;;;;4.15;2.58;;;15.90;59.20;;;;;;4940245;29;20027;-76
2022/04/30 11:46:53;;;;;;;2.50;2.13;;;15.90;59.20;;;;;;4956478;29;20035;-76
2022/04/30 11:49:20;;;;;;;3.55;2.60;;;15.90;59.10;;;;;;4940680;29;20094;-78
2022/04/30 11:51:49;;;;;;;3.60;2.75;;;15.90;59.00;;;;;;4956337;29;20031;-78
2022/04/30 11:54:17;;;;;;;3.70;2.58;;;15.90;58.90;;;;;;4940459;29;20062;-76
2022/04/30 11:56:44;;;;;;;4.93;2.65;;;16.00;58.90;;;;;;4940328;29;20020;-77
2022/04/30 11:59:11;;;;;;;2.90;2.50;;;16.00;58.90;;;;;;4941035;29;20135;-77
2022/04/30 12:01:42;;;;;;;3.95;2.30;;;16.00;58.90;;;;;;4940359;29;20023;-76
2022/04/30 12:04:14;;;;;;;3.63;2.50;;;16.00;58.90;;;;;;4956526;29;20511;-77
2022/04/30 12:06:44;;;;;;;3.97;2.35;;;16.10;58.90;;;;;;4957897;28;20066;-77
2022/04/30 12:09:17;;;;;;;3.22;2.50;;;16.10;59.50;;;;;;4940757;29;20133;-79
2022/04/30 12:11:51;;;;;;;3.78;2.67;;;16.10;58.80;;;;;;4957982;28;20039;-76
2022/04/30 12:14:18;;;;;;;4.43;2.22;;;16.20;58.80;;;;;;4955359;28;20055;-77
2022/04/30 12:16:45;;;;;;;3.00;2.45;;;16.20;58.70;;;;;;4939988;29;20043;-77
2022/04/30 12:25:04;;;;;;;3.50;2.33;;;16.20;58.60;;;;;;4957559;29;20031;-76
2022/04/30 12:27:30;;;;;;;3.75;2.40;;;16.30;58.60;;;;;;4939740;29;20055;-76
2022/04/30 12:30:05;;;;;;;4.25;2.40;;;16.30;58.70;;;;;;4938927;29;20114;-76
2022/04/30 12:32:33;;;;;;;2.90;2.33;;;16.30;58.70;;;;;;4939754;29;20468;-78
2022/04/30 12:34:59;;;;;;;2.92;2.10;;;16.40;58.60;;;;;;4955575;29;20110;-78
2022/04/30 12:37:33;;;;;;;3.15;2.40;;;16.50;58.60;;;;;;4939155;29;20034;-78
2022/04/30 12:40:00;;;;;;;3.03;2.38;;;16.40;58.40;;;;;;4955704;29;20043;-76
2022/04/30 12:42:26;;;;;;;3.47;2.33;;;16.50;58.40;;;;;;4955093;29;20020;-76
2022/04/30 12:44:52;;;;;;;2.95;2.28;;;16.60;58.40;;;;;;4954909;29;20506;-76
2022/04/30 12:47:17;;;;;;;2.97;2.25;;;16.60;58.40;;;;;;4955921;29;20043;-77
2022/04/30 12:49:43;;;;;;;3.45;2.63;;;16.60;58.40;;;;;;4955089;29;20046;-79
2022/04/30 12:52:09;;;;;;;3.17;2.30;;;16.60;58.40;;;;;;4938926;29;20027;-78
2022/04/30 12:54:35;;;;;;;3.53;2.40;;;16.70;58.40;;;;;;4939175;29;20031;-78
2022/04/30 12:57:07;;;;;;;3.42;2.00;;;16.70;58.40;;;;;;4956293;28;20035;-77
2022/04/30 12:59:37;;;;;;;3.28;2.30;;;16.70;58.40;;;;;;4939742;29;20058;-80
2022/04/30 13:02:04;;;;;;;3.33;2.38;;;16.80;58.40;;;;;;4955541;29;20057;-77
2022/04/30 13:04:30;;;;;;;2.97;2.22;;;16.80;58.40;;;;;;4939890;29;20121;-79
2022/04/30 13:06:56;;;;;;;3.03;2.38;;;16.80;58.40;;;;;;4938857;29;20055;-78
2022/04/30 13:14:52;;;;;;;4.15;2.08;;;16.90;58.50;;;;;;4941287;29;20043;-79
2022/04/30 13:17:17;;;;;;;2.72;2.28;;;16.90;58.50;;;;;;4954852;29;20118;-77
2022/04/30 13:19:44;;;;;;;3.33;2.40;;;16.90;58.60;;;;;;4923072;29;20460;-76
2022/04/30 13:22:10;;;;;;;2.97;2.28;;;16.90;58.60;;;;;;4938595;29;20047;-76
2022/04/30 13:24:36;;;;;;;2.92;2.33;;;16.90;58.60;;;;;;4922281;29;20062;-76
2022/04/30 13:27:02;;;;;;;3.30;2.53;;;17.00;58.70;;;;;;4954965;29;20035;-77
2022/04/30 13:29:27;;;;;;;2.90;2.15;;;16.90;58.60;;;;;;4954714;29;20035;-78
2022/04/30 13:31:53;;;;;;;2.78;2.08;;;17.00;58.60;;;;;;4954182;29;20074;-78
2022/04/30 13:34:21;;;;;;;5.05;2.70;;;17.00;58.60;;;;;;4938920;29;20030;-77
2022/04/30 13:36:47;;;;;;;2.35;1.92;;;17.00;58.60;;;;;;4908257;29;20031;-77
2022/04/30 13:39:13;;;;;;;2.25;1.90;;;17.00;58.60;;;;;;4938288;29;20099;-77
2022/04/30 13:41:38;;;;;;;2.38;2.10;;;17.00;58.60;;;;;;4954194;29;20027;-77
2022/04/30 13:44:05;;;;;;;3.47;2.30;;;17.00;58.60;;;;;;4938394;29;20031;-78